Time;durP1;ratioP1;P1;durP2;ratioP2;P2;SDS_P1;SDS_P2;PMS_P1;PMS_P2;Temp;Humidity;BMP_temperature;BMP_pressure;BME280_temperature;BME280_humidity;BME280_pressure;Samples;Min_cycle;Max_cycle;Signal;HPM_P1;HPM_P2
2021/10/01 00:01:40;;;;;;;4.22;1.10;;;13.10;99.90;;;;;;5064031;28;20531;-42
2021/10/01 00:04:08;;;;;;;5.97;1.50;;;13.00;99.90;;;;;;5067739;28;20059;-40
2021/10/01 00:06:34;;;;;;;4.55;1.33;;;13.00;99.90;;;;;;5066494;28;20052;-41
2021/10/01 00:08:59;;;;;;;5.43;1.20;;;13.00;99.90;;;;;;5065014;28;20060;-37
2021/10/01 00:11:25;;;;;;;2.28;0.93;;;12.90;99.90;;;;;;5068529;28;20024;-40
2021/10/01 00:13:51;;;;;;;2.55;1.00;;;12.90;99.90;;;;;;5062504;28;20052;-40
2021/10/01 00:16:17;;;;;;;3.35;1.20;;;12.90;99.90;;;;;;5070243;28;20075;-40
2021/10/01 00:18:43;;;;;;;2.28;1.10;;;12.90;99.90;;;;;;5063539;28;20021;-39
2021/10/01 00:21:09;;;;;;;2.85;1.23;;;12.90;99.90;;;;;;5070312;28;20047;-41
2021/10/01 00:23:35;;;;;;;3.53;1.08;;;12.90;99.90;;;;;;5059809;28;20017;-40
2021/10/01 00:26:01;;;;;;;4.38;1.30;;;12.90;99.90;;;;;;5071981;28;20031;-39
2021/10/01 00:28:32;;;;;;;2.90;1.10;;;12.90;99.90;;;;;;5058296;28;20020;-39
2021/10/01 00:31:04;;;;;;;3.17;1.30;;;12.90;99.90;;;;;;5072420;28;20028;-41
2021/10/01 00:33:29;;;;;;;3.35;1.10;;;13.00;99.90;;;;;;5058905;28;20532;-41
2021/10/01 00:36:03;;;;;;;5.13;1.48;;;13.00;99.90;;;;;;5071214;28;20123;-39
2021/10/01 00:38:29;;;;;;;3.72;1.20;;;13.10;99.90;;;;;;5058254;28;20212;-39
2021/10/01 00:40:54;;;;;;;3.60;1.20;;;13.10;99.90;;;;;;5072233;28;20078;-36
2021/10/01 00:43:20;;;;;;;3.35;1.10;;;13.10;99.90;;;;;;5060468;28;20071;-41
2021/10/01 00:45:45;;;;;;;2.97;1.20;;;13.10;99.90;;;;;;5069559;28;20048;-40
2021/10/01 00:48:11;;;;;;;2.40;1.08;;;13.10;99.90;;;;;;5064291;28;20427;-37
2021/10/01 00:50:36;;;;;;;2.65;1.10;;;13.20;99.90;;;;;;5065678;28;20316;-40
2021/10/01 00:53:03;;;;;;;3.75;1.08;;;13.20;99.90;;;;;;5065974;28;20039;-40
2021/10/01 00:55:29;;;;;;;3.20;1.02;;;13.20;99.90;;;;;;5063709;28;20128;-40
2021/10/01 00:57:55;;;;;;;3.05;0.88;;;13.20;99.90;;;;;;5068346;28;20137;-41
2021/10/01 01:00:26;;;;;;;2.58;1.00;;;13.20;99.90;;;;;;5060880;28;20450;-41
2021/10/01 01:02:52;;;;;;;2.75;1.08;;;13.30;99.90;;;;;;5070127;28;20020;-42
2021/10/01 01:05:18;;;;;;;3.10;1.20;;;13.20;99.90;;;;;;5058417;28;20099;-40
2021/10/01 01:08:00;;;;;;;3.80;1.10;;;13.30;99.90;;;;;;5069538;28;20051;-39
2021/10/01 01:10:56;;;;;;;0.98;0.70;;;13.30;99.90;;;;;;5058952;28;20043;-39
2021/10/01 01:13:38;;;;;;;4.03;1.10;;;13.30;99.90;;;;;;5068258;28;20040;-39
2021/10/01 01:16:10;;;;;;;3.13;1.48;;;13.20;99.90;;;;;;5062370;28;20297;-40
2021/10/01 01:18:42;;;;;;;1.50;0.75;;;13.20;99.90;;;;;;5062439;28;20025;-39
2021/10/01 01:21:13;;;;;;;1.42;0.80;;;13.20;99.90;;;;;;5060550;28;20032;-41
2021/10/01 01:24:09;;;;;;;3.53;1.02;;;13.20;99.90;;;;;;5051933;28;20070;-42
2021/10/01 01:27:00;;;;;;;1.92;1.00;;;13.20;99.90;;;;;;5057424;28;20032;-41
2021/10/01 01:29:41;;;;;;;3.10;1.00;;;13.20;99.90;;;;;;5056854;28;20021;-40
2021/10/01 01:32:18;;;;;;;2.75;1.17;;;13.10;99.90;;;;;;5054347;28;20028;-38
2021/10/01 01:34:52;;;;;;;2.05;1.02;;;13.10;99.90;;;;;;5057991;28;20025;-36
2021/10/01 01:37:24;;;;;;;2.72;1.00;;;13.10;99.90;;;;;;5053457;28;20376;-34
2021/10/01 01:39:51;;;;;;;2.22;0.90;;;13.00;99.90;;;;;;5057081;28;20023;-40
2021/10/01 01:42:18;;;;;;;1.80;0.90;;;13.00;99.90;;;;;;5055528;28;20075;-41
2021/10/01 01:44:44;;;;;;;4.32;1.10;;;13.00;99.90;;;;;;5054819;28;20017;-38
2021/10/01 01:47:11;;;;;;;2.35;0.90;;;13.00;99.90;;;;;;5057935;28;20025;-42
2021/10/01 01:49:37;;;;;;;2.58;0.90;;;13.00;99.90;;;;;;5052249;28;20021;-41
2021/10/01 01:52:04;;;;;;;2.42;0.95;;;13.00;99.90;;;;;;5061061;28;20536;-40
2021/10/01 01:54:37;;;;;;;2.67;0.98;;;13.10;99.90;;;;;;5050712;28;20028;-42
2021/10/01 01:57:03;;;;;;;3.40;0.90;;;13.10;99.90;;;;;;5061721;28;20032;-39
2021/10/01 01:59:31;;;;;;;1.85;0.85;;;13.10;99.90;;;;;;5050522;28;20017;-40
2021/10/01 02:01:58;;;;;;;2.15;0.80;;;13.20;99.90;;;;;;5061230;28;20081;-40
2021/10/01 02:04:25;;;;;;;2.72;0.70;;;13.20;99.90;;;;;;5049588;28;20025;-42
2021/10/01 02:06:52;;;;;;;1.48;0.90;;;13.20;99.90;;;;;;5056880;28;20021;-40
2021/10/01 02:09:19;;;;;;;3.10;1.02;;;13.20;99.90;;;;;;5070201;28;20178;-41
2021/10/01 02:11:46;;;;;;;3.95;1.30;;;13.20;99.90;;;;;;5057279;28;20469;-39
2021/10/01 02:14:19;;;;;;;3.10;1.10;;;13.20;99.90;;;;;;5070118;28;20076;-40
2021/10/01 02:16:47;;;;;;;2.35;0.70;;;13.30;99.90;;;;;;5057623;28;20029;-41
2021/10/01 02:19:16;;;;;;;4.47;1.20;;;13.30;99.90;;;;;;5056155;28;20032;-40
2021/10/01 02:21:44;;;;;;;3.65;1.30;;;13.30;99.90;;;;;;5060623;28;20020;-40
2021/10/01 02:24:09;;;;;;;3.28;1.00;;;13.30;99.90;;;;;;5051853;28;20018;-40
2021/10/01 02:26:41;;;;;;;3.20;0.77;;;13.30;99.90;;;;;;5057825;28;20031;-40
2021/10/01 02:29:25;;;;;;;2.28;0.88;;;13.30;99.90;;;;;;5053025;28;20032;-41
2021/10/01 02:32:05;;;;;;;2.90;0.70;;;13.30;99.90;;;;;;5058704;28;20515;-37
2021/10/01 02:34:38;;;;;;;2.33;0.77;;;13.30;99.90;;;;;;5049998;28;20079;-42
2021/10/01 02:37:08;;;;;;;2.58;0.90;;;13.30;99.90;;;;;;5059692;28;20422;-37
2021/10/01 02:39:36;;;;;;;1.95;0.77;;;13.40;99.90;;;;;;5051885;28;20112;-42
2021/10/01 02:42:03;;;;;;;4.00;1.13;;;13.40;99.90;;;;;;5057747;28;20032;-41
2021/10/01 02:44:28;;;;;;;1.55;0.70;;;13.30;99.90;;;;;;5053288;28;20488;-42
2021/10/01 02:46:54;;;;;;;1.80;0.80;;;13.30;99.90;;;;;;5055798;28;20017;-41
2021/10/01 02:49:19;;;;;;;5.22;1.20;;;13.40;99.90;;;;;;5060405;28;20491;-39
2021/10/01 02:51:58;;;;;;;2.85;0.80;;;13.30;99.90;;;;;;5056722;28;20392;-39
2021/10/01 02:54:33;;;;;;;3.92;0.80;;;13.40;99.90;;;;;;5061778;28;20021;-38
2021/10/01 02:57:14;;;;;;;4.55;0.90;;;13.40;99.90;;;;;;5056106;28;20040;-40
2021/10/01 02:59:42;;;;;;;2.15;0.90;;;13.40;99.90;;;;;;5060673;28;20479;-41
2021/10/01 03:02:09;;;;;;;1.23;0.50;;;13.40;99.90;;;;;;5056787;28;20021;-41
2021/10/01 03:04:36;;;;;;;2.40;0.85;;;13.40;99.90;;;;;;5061446;28;20029;-41
2021/10/01 03:07:04;;;;;;;2.80;1.45;;;13.40;99.90;;;;;;5055092;28;20016;-40
2021/10/01 03:09:32;;;;;;;2.15;0.70;;;13.40;99.90;;;;;;5063281;28;20044;-41
2021/10/01 03:12:00;;;;;;;2.70;1.08;;;13.40;99.90;;;;;;5054374;28;20032;-41
2021/10/01 03:14:26;;;;;;;2.47;0.80;;;13.40;99.90;;;;;;5063657;28;20049;-40
2021/10/01 03:16:53;;;;;;;4.43;1.55;;;13.40;99.90;;;;;;5053574;28;20025;-41
2021/10/01 03:19:22;;;;;;;7.03;1.40;;;13.40;99.90;;;;;;5055306;28;20064;-41
2021/10/01 03:21:51;;;;;;;3.53;1.25;;;13.40;99.90;;;;;;5054331;28;20530;-40
2021/10/01 03:24:20;;;;;;;4.18;1.30;;;13.50;99.90;;;;;;5059665;28;20534;-38
2021/10/01 03:26:45;;;;;;;2.83;1.02;;;13.50;99.90;;;;;;5073711;28;20028;-40
2021/10/01 03:29:11;;;;;;;2.90;0.93;;;13.40;99.80;;;;;;5060165;28;20021;-41
2021/10/01 03:31:38;;;;;;;2.08;1.08;;;13.40;99.90;;;;;;5068857;28;20028;-40
2021/10/01 03:34:04;;;;;;;2.92;0.85;;;13.40;99.90;;;;;;5062677;28;20476;-41
2021/10/01 03:36:29;;;;;;;6.28;1.10;;;13.30;99.90;;;;;;5070569;28;20179;-41
2021/10/01 03:38:56;;;;;;;3.03;0.95;;;13.30;99.70;;;;;;5064573;28;20031;-41
2021/10/01 03:41:22;;;;;;;4.85;0.85;;;13.40;99.80;;;;;;5067555;28;20063;-38
2021/10/01 03:43:48;;;;;;;1.77;0.70;;;13.40;99.70;;;;;;5067032;28;20013;-39
2021/10/01 03:46:13;;;;;;;2.83;1.00;;;13.40;99.70;;;;;;5064808;28;20032;-37
2021/10/01 03:48:39;;;;;;;2.05;0.70;;;13.40;99.70;;;;;;5070126;28;20202;-41
2021/10/01 03:51:04;;;;;;;2.65;0.90;;;13.50;99.70;;;;;;5063433;28;20051;-39
2021/10/01 03:53:30;;;;;;;1.75;0.75;;;13.50;99.80;;;;;;5070257;28;20013;-39
2021/10/01 03:55:56;;;;;;;3.10;0.88;;;13.50;99.70;;;;;;5061732;28;20037;-40
2021/10/01 03:58:21;;;;;;;2.30;0.95;;;13.50;99.60;;;;;;5069956;28;20536;-41
2021/10/01 04:00:53;;;;;;;6.30;1.13;;;13.60;99.50;;;;;;5060521;28;20061;-40
2021/10/01 04:03:30;;;;;;;3.42;1.00;;;13.50;99.40;;;;;;5072431;28;20039;-40
2021/10/01 04:06:06;;;;;;;3.17;1.08;;;13.50;99.60;;;;;;5060569;28;20036;-37
2021/10/01 04:08:32;;;;;;;4.47;2.05;;;13.40;99.40;;;;;;5071534;28;20491;-38
2021/10/01 04:10:58;;;;;;;2.63;0.80;;;13.30;99.50;;;;;;5065066;28;20100;-39
2021/10/01 04:13:23;;;;;;;2.38;1.05;;;13.30;99.70;;;;;;5051301;28;20547;-39
2021/10/01 04:15:49;;;;;;;4.47;0.93;;;13.20;99.70;;;;;;5063959;28;20037;-40
2021/10/01 04:18:17;;;;;;;5.07;0.88;;;13.20;99.80;;;;;;5056885;28;20452;-41
2021/10/01 04:20:45;;;;;;;3.65;1.10;;;13.30;99.90;;;;;;5059911;28;20670;-41
2021/10/01 04:23:12;;;;;;;2.95;1.08;;;13.30;99.80;;;;;;5071603;28;20481;-40
2021/10/01 04:25:37;;;;;;;3.22;1.17;;;13.30;99.70;;;;;;5062104;28;20196;-37
2021/10/01 04:28:08;;;;;;;1.40;0.70;;;13.30;99.80;;;;;;5067541;28;20021;-40
2021/10/01 04:30:49;;;;;;;3.78;0.80;;;13.20;99.80;;;;;;5064512;28;20451;-39
2021/10/01 04:33:20;;;;;;;1.15;0.70;;;13.20;99.80;;;;;;5068331;28;20025;-41
2021/10/01 04:35:50;;;;;;;2.17;0.90;;;13.10;99.90;;;;;;5063574;28;20029;-39
2021/10/01 04:38:16;;;;;;;4.95;1.10;;;13.00;99.90;;;;;;5067119;28;20028;-40
2021/10/01 04:40:42;;;;;;;4.40;1.10;;;13.00;99.90;;;;;;5066407;28;20131;-40
2021/10/01 04:43:08;;;;;;;3.90;0.73;;;13.00;99.90;;;;;;5064099;28;20107;-41
2021/10/01 04:45:33;;;;;;;1.88;0.80;;;12.90;99.90;;;;;;5067916;28;20028;-40
2021/10/01 04:48:03;;;;;;;1.15;0.60;;;12.90;99.90;;;;;;5062153;28;20043;-41
2021/10/01 04:50:29;;;;;;;4.05;0.93;;;12.80;99.90;;;;;;5069286;28;20467;-39
2021/10/01 04:52:54;;;;;;;3.28;0.80;;;12.80;99.90;;;;;;5060598;28;20017;-39
2021/10/01 04:55:23;;;;;;;2.20;0.80;;;12.70;99.90;;;;;;5069209;28;20044;-41
2021/10/01 04:57:50;;;;;;;4.43;1.20;;;12.70;99.90;;;;;;5059804;28;20017;-35
2021/10/01 05:00:15;;;;;;;3.33;0.90;;;12.70;99.90;;;;;;5071302;28;20032;-40
2021/10/01 05:02:41;;;;;;;3.60;0.98;;;12.60;99.90;;;;;;5057792;28;20016;-38
2021/10/01 05:05:07;;;;;;;2.83;1.00;;;12.60;99.90;;;;;;5070988;28;20028;-40
2021/10/01 05:07:36;;;;;;;2.42;1.13;;;12.60;99.90;;;;;;5057621;28;20107;-41
2021/10/01 05:10:03;;;;;;;2.65;1.10;;;12.60;99.90;;;;;;5070415;28;20024;-41
2021/10/01 05:12:28;;;;;;;2.75;1.02;;;12.60;99.90;;;;;;5058788;28;20029;-40
2021/10/01 05:14:57;;;;;;;2.72;1.20;;;12.60;99.90;;;;;;5069818;28;20810;-39
2021/10/01 05:17:23;;;;;;;1.95;0.90;;;12.60;99.90;;;;;;5061043;28;20364;-41
2021/10/01 05:19:49;;;;;;;2.80;1.02;;;12.60;99.90;;;;;;5050824;28;20025;-41
2021/10/01 05:22:16;;;;;;;2.30;0.90;;;12.60;99.90;;;;;;5056858;28;20093;-38
2021/10/01 05:24:44;;;;;;;3.28;1.00;;;12.60;99.90;;;;;;5055881;28;20021;-40
2021/10/01 05:27:11;;;;;;;3.13;0.90;;;12.60;99.90;;;;;;5055373;28;20017;-41
2021/10/01 05:29:37;;;;;;;5.05;1.48;;;12.60;99.90;;;;;;5057974;28;20477;-40
2021/10/01 05:32:05;;;;;;;2.42;1.00;;;12.60;99.90;;;;;;5052601;28;20082;-41
2021/10/01 05:34:31;;;;;;;3.08;1.10;;;12.60;99.90;;;;;;5059687;28;20025;-40
2021/10/01 05:36:57;;;;;;;3.15;0.90;;;12.60;99.90;;;;;;5052039;28;20043;-40
2021/10/01 05:39:22;;;;;;;5.65;1.45;;;12.60;99.90;;;;;;5061047;28;20121;-41
2021/10/01 05:41:48;;;;;;;2.30;0.80;;;12.60;99.90;;;;;;5051354;28;20020;-40
2021/10/01 05:44:13;;;;;;;2.50;1.10;;;12.60;99.90;;;;;;5062530;28;20107;-41
2021/10/01 05:46:44;;;;;;;2.13;0.90;;;12.60;99.90;;;;;;5048689;28;20029;-38
2021/10/01 05:49:20;;;;;;;4.47;1.10;;;12.60;99.90;;;;;;5063063;28;20024;-40
2021/10/01 05:51:49;;;;;;;3.95;0.85;;;12.60;99.90;;;;;;5050319;28;20028;-40
2021/10/01 05:54:21;;;;;;;5.25;1.08;;;12.60;99.90;;;;;;5062432;28;20551;-41
2021/10/01 05:56:51;;;;;;;3.15;1.02;;;12.60;99.90;;;;;;5050656;28;20053;-40
2021/10/01 05:59:18;;;;;;;2.42;1.00;;;12.70;99.90;;;;;;5060130;28;20171;-40
2021/10/01 06:01:44;;;;;;;3.80;0.98;;;12.70;99.90;;;;;;5051060;28;20031;-39
2021/10/01 06:04:10;;;;;;;3.00;0.90;;;12.70;99.90;;;;;;5061058;28;20020;-38
2021/10/01 06:06:36;;;;;;;12.13;2.22;;;12.70;99.90;;;;;;5050825;28;20025;-41
2021/10/01 06:09:03;;;;;;;13.05;3.10;;;12.70;99.90;;;;;;5058312;28;20460;-42
2021/10/01 06:11:28;;;;;;;9.32;2.35;;;12.70;99.90;;;;;;5053107;28;20029;-41
2021/10/01 06:13:54;;;;;;;5.88;1.70;;;12.70;99.90;;;;;;5055547;28;20037;-41
2021/10/01 06:16:22;;;;;;;3.53;1.67;;;12.80;99.90;;;;;;5055992;28;20040;-40
2021/10/01 06:18:48;;;;;;;2.45;1.38;;;12.80;99.90;;;;;;5053541;28;20024;-40
2021/10/01 06:21:13;;;;;;;2.35;1.10;;;12.80;99.90;;;;;;5058264;28;20025;-42
2021/10/01 06:23:39;;;;;;;2.83;0.82;;;12.80;99.90;;;;;;5050193;28;20098;-45
2021/10/01 06:26:05;;;;;;;2.05;1.00;;;12.90;99.90;;;;;;5061023;28;20029;-46
2021/10/01 06:28:32;;;;;;;3.33;1.10;;;12.90;99.90;;;;;;5050184;28;20044;-44
2021/10/01 06:30:58;;;;;;;2.85;1.00;;;13.00;99.90;;;;;;5061108;28;20090;-40
2021/10/01 06:33:25;;;;;;;2.08;0.80;;;13.00;99.90;;;;;;5049129;28;20021;-39
2021/10/01 06:35:54;;;;;;;3.42;1.10;;;13.00;99.90;;;;;;5056323;28;20182;-41
2021/10/01 06:38:20;;;;;;;3.22;0.85;;;13.00;99.90;;;;;;5069095;28;20480;-39
2021/10/01 06:40:45;;;;;;;1.10;0.98;;;13.00;99.90;;;;;;5056675;28;20083;-40
2021/10/01 06:43:14;;;;;;;5.13;1.50;;;13.00;99.90;;;;;;5069745;28;20021;-40
2021/10/01 06:45:40;;;;;;;4.13;1.63;;;13.00;99.90;;;;;;5057208;28;20033;-40
2021/10/01 07:20:41;;;;;;;6.38;2.40;;;13.10;99.90;;;;;;5067191;28;20052;-36
2021/10/01 07:35:00;;;;;;;3.75;1.10;;;13.70;99.40;;;;;;5053020;28;20032;-39
2021/10/01 08:18:41;;;;;;;3.28;1.08;;;14.50;98.40;;;;;;5065708;28;20404;-40
2021/10/01 08:21:04;;;;;;;2.10;1.33;;;14.50;98.40;;;;;;5071236;28;20486;-38
2021/10/01 08:23:30;;;;;;;3.17;0.98;;;14.60;98.40;;;;;;5063286;28;20017;-41
2021/10/01 08:25:58;;;;;;;1.83;0.73;;;14.70;98.30;;;;;;5067852;28;20020;-41
2021/10/01 08:28:24;;;;;;;2.05;0.68;;;14.70;98.40;;;;;;5064658;28;20028;-41
2021/10/01 08:30:50;;;;;;;2.80;1.27;;;14.80;98.50;;;;;;5066158;28;20112;-41
2021/10/01 08:33:15;;;;;;;3.95;1.00;;;14.80;98.50;;;;;;5067479;28;20499;-41
2021/10/01 08:35:41;;;;;;;5.75;1.02;;;14.90;98.40;;;;;;5062798;28;20500;-40
2021/10/01 08:38:07;;;;;;;2.97;1.10;;;14.90;98.40;;;;;;5070628;28;20039;-40
2021/10/01 08:40:39;;;;;;;3.05;1.08;;;14.90;98.50;;;;;;5059695;28;20028;-40
2021/10/01 08:43:06;;;;;;;1.97;0.80;;;14.90;98.90;;;;;;5070372;28;20116;-41
2021/10/01 08:45:32;;;;;;;3.20;1.08;;;14.90;99.30;;;;;;5059113;28;20020;-40
2021/10/01 08:48:00;;;;;;;2.78;0.93;;;14.80;99.60;;;;;;5077721;28;20016;-39
2021/10/01 08:50:27;;;;;;;1.98;0.80;;;14.70;99.90;;;;;;5062412;28;20021;-40
2021/10/01 08:52:56;;;;;;;2.38;0.77;;;14.70;99.90;;;;;;5051661;28;20465;-41
2021/10/01 08:55:21;;;;;;;2.70;0.98;;;14.80;99.90;;;;;;5065161;28;20040;-37
2021/10/01 08:57:47;;;;;;;2.67;0.98;;;14.80;99.90;;;;;;5087303;28;20024;-37
2021/10/01 09:00:18;;;;;;;2.25;0.90;;;14.90;99.90;;;;;;5070204;28;20036;-43
2021/10/01 09:02:44;;;;;;;2.30;0.82;;;15.00;99.90;;;;;;5057491;28;20017;-40
2021/10/01 09:05:10;;;;;;;1.02;0.70;;;15.00;99.90;;;;;;5072886;28;20033;-40
2021/10/01 09:07:36;;;;;;;3.13;0.77;;;15.00;99.90;;;;;;5052239;28;20029;-40
2021/10/01 09:10:09;;;;;;;2.63;1.10;;;15.00;99.90;;;;;;5058523;28;20070;-38
2021/10/01 09:12:35;;;;;;;3.13;1.20;;;15.00;99.90;;;;;;5054123;28;20481;-39
2021/10/01 09:15:01;;;;;;;3.42;1.27;;;15.00;99.90;;;;;;5056125;28;20060;-39
2021/10/01 09:17:29;;;;;;;8.25;1.95;;;15.00;99.90;;;;;;5054965;28;20555;-40
2021/10/01 09:19:56;;;;;;;2.30;0.90;;;15.10;99.90;;;;;;5060091;28;20036;-40
2021/10/01 09:22:35;;;;;;;3.22;1.00;;;15.10;99.90;;;;;;5061732;28;20017;-42
2021/10/01 09:25:22;;;;;;;4.50;1.08;;;15.10;99.90;;;;;;5067139;28;20029;-39
2021/10/01 09:27:52;;;;;;;3.72;1.75;;;15.10;99.90;;;;;;5064609;28;20436;-38
2021/10/01 09:30:21;;;;;;;3.50;1.20;;;15.20;99.90;;;;;;5064858;28;20017;-43
2021/10/01 09:33:20;;;;;;;3.28;1.02;;;15.10;99.90;;;;;;5063846;28;20129;-41
2021/10/01 09:35:46;;;;;;;3.78;1.42;;;15.10;99.90;;;;;;5019616;28;20037;-40
2021/10/01 09:38:11;;;;;;;4.93;1.52;;;15.10;99.90;;;;;;5064216;28;20012;-40
2021/10/01 09:40:38;;;;;;;6.13;1.30;;;15.10;99.90;;;;;;5065639;28;20146;-40
2021/10/01 09:43:05;;;;;;;2.00;1.00;;;15.10;99.90;;;;;;5062950;28;20025;-38
2021/10/01 09:45:31;;;;;;;3.58;1.10;;;15.10;99.90;;;;;;5067291;28;20026;-42
2021/10/01 09:48:04;;;;;;;3.95;1.17;;;15.10;99.90;;;;;;5059902;28;20025;-40
2021/10/01 09:50:32;;;;;;;2.88;1.00;;;15.10;99.90;;;;;;5067879;28;20021;-40
2021/10/01 09:53:03;;;;;;;2.88;0.90;;;15.10;99.90;;;;;;5059378;28;20031;-42
2021/10/01 09:55:35;;;;;;;3.67;0.90;;;15.10;99.90;;;;;;5068359;28;20104;-44
2021/10/01 09:58:00;;;;;;;2.27;1.27;;;15.20;99.90;;;;;;5058261;28;20090;-45
2021/10/01 10:00:53;;;;;;;2.28;0.90;;;15.20;99.90;;;;;;5068912;28;20507;-41
2021/10/01 10:03:22;;;;;;;;;;;15.30;99.90;;;;;;5055733;28;20060;-46
2021/10/01 10:06:05;;;;;;;5.05;1.10;;;15.30;99.90;;;;;;5068489;28;19912;-45
2021/10/01 10:08:35;;;;;;;2.15;0.80;;;15.30;99.90;;;;;;5058092;28;20027;-45
2021/10/01 10:11:03;;;;;;;2.90;1.00;;;15.30;99.90;;;;;;5068866;28;20048;-46
2021/10/01 10:13:43;;;;;;;2.92;1.02;;;15.30;99.90;;;;;;5057955;28;20056;-45
2021/10/01 10:16:10;;;;;;;2.70;1.13;;;15.30;99.90;;;;;;5068608;28;20037;-45
2021/10/01 10:18:36;;;;;;;5.25;1.00;;;15.40;99.90;;;;;;5054005;28;20045;-44
2021/10/01 10:21:04;;;;;;;5.72;1.00;;;15.50;99.90;;;;;;5050782;28;20027;-45
2021/10/01 10:23:29;;;;;;;3.60;0.93;;;15.70;99.90;;;;;;5061553;28;20021;-45
2021/10/01 10:25:55;;;;;;;1.35;0.70;;;15.80;99.90;;;;;;5049495;28;20028;-45
2021/10/01 10:28:21;;;;;;;2.17;1.00;;;15.90;99.90;;;;;;5061824;28;20021;-46
2021/10/01 10:30:50;;;;;;;3.28;1.00;;;16.10;99.90;;;;;;5050117;28;20035;-40
2021/10/01 10:33:39;;;;;;;3.40;0.80;;;16.30;99.90;;;;;;5061099;28;20029;-45
2021/10/01 10:36:28;;;;;;;3.40;1.20;;;16.40;99.90;;;;;;5050486;28;20047;-44
2021/10/01 10:38:55;;;;;;;2.15;0.93;;;16.60;99.90;;;;;;5044378;28;20035;-42
2021/10/01 10:41:30;;;;;;;3.42;1.13;;;16.70;99.90;;;;;;5069293;28;20559;-43
2021/10/01 10:43:59;;;;;;;4.47;1.38;;;16.80;99.50;;;;;;5057058;28;20055;-41
2021/10/01 10:46:42;;;;;;;4.40;1.67;;;16.80;99.50;;;;;;5069541;28;20025;-44
2021/10/01 10:49:14;;;;;;;4.40;1.20;;;16.80;99.20;;;;;;5057082;28;20056;-45
2021/10/01 10:52:12;;;;;;;3.85;1.30;;;16.80;99.10;;;;;;5069774;28;20610;-45
2021/10/01 10:55:02;;;;;;;2.25;1.23;;;16.80;99.10;;;;;;5059876;28;20035;-41
2021/10/01 10:57:28;;;;;;;4.90;1.30;;;16.80;99.10;;;;;;5049127;28;20037;-41
2021/10/01 11:00:04;;;;;;;3.10;1.05;;;16.80;98.80;;;;;;5064789;28;20365;-41
2021/10/01 11:02:44;;;;;;;5.10;1.30;;;16.80;98.50;;;;;;5067695;28;20028;-40
2021/10/01 11:05:19;;;;;;;3.65;1.08;;;16.80;98.50;;;;;;5060699;28;20112;-40
2021/10/01 11:07:50;;;;;;;4.85;0.98;;;16.80;98.40;;;;;;5051581;28;20028;-39
2021/10/01 11:10:36;;;;;;;2.85;0.75;;;16.90;98.50;;;;;;5064664;28;20059;-40
2021/10/01 11:13:23;;;;;;;2.35;0.93;;;17.00;98.20;;;;;;5054163;28;20159;-40
2021/10/01 11:16:11;;;;;;;3.85;1.15;;;17.00;97.90;;;;;;5063631;28;20102;-40
2021/10/01 11:18:43;;;;;;;3.75;1.10;;;17.10;98.20;;;;;;5056867;28;20029;-40
2021/10/01 11:21:32;;;;;;;3.47;1.25;;;17.20;97.50;;;;;;5060847;28;20112;-40
2021/10/01 11:24:20;;;;;;;4.18;1.13;;;17.20;97.30;;;;;;5056196;28;20044;-39
2021/10/01 11:26:52;;;;;;;3.10;1.10;;;17.30;97.30;;;;;;5059481;28;20044;-41
2021/10/01 11:29:34;;;;;;;2.72;1.00;;;17.30;97.10;;;;;;5056969;28;20021;-37
2021/10/01 11:32:16;;;;;;;3.45;1.13;;;17.30;97.10;;;;;;5058306;28;20073;-40
2021/10/01 11:34:59;;;;;;;2.28;0.90;;;17.40;97.10;;;;;;5059312;28;20016;-40
2021/10/01 11:37:27;;;;;;;;;;;17.40;97.00;;;;;;5055818;28;20392;-41
2021/10/01 11:40:05;;;;;;;3.60;1.25;;;17.40;96.90;;;;;;5059197;28;19905;-39
2021/10/01 11:42:34;;;;;;;3.97;1.33;;;17.40;96.90;;;;;;5059125;28;20034;-40
2021/10/01 11:45:26;;;;;;;3.47;0.93;;;17.40;96.90;;;;;;5065742;28;20036;-40
2021/10/01 11:47:55;;;;;;;2.83;0.90;;;17.50;97.00;;;;;;5071004;28;20024;-41
2021/10/01 11:50:34;;;;;;;1.73;0.85;;;17.50;96.80;;;;;;5063584;28;20497;-38
2021/10/01 11:53:04;;;;;;;5.10;1.23;;;17.50;96.90;;;;;;5070121;28;20028;-40
2021/10/01 11:55:33;;;;;;;2.00;0.90;;;17.50;96.80;;;;;;5063919;28;20070;-41
2021/10/01 11:57:59;;;;;;;2.53;0.80;;;17.60;96.90;;;;;;5067917;28;20047;-40
2021/10/01 12:00:24;;;;;;;7.32;1.17;;;17.70;96.90;;;;;;5066325;28;20480;-38
2021/10/01 12:02:52;;;;;;;2.03;0.80;;;17.80;96.90;;;;;;5065081;28;20040;-40
2021/10/01 12:05:23;;;;;;;2.38;0.80;;;17.90;96.90;;;;;;5067755;28;20012;-40
2021/10/01 12:08:03;;;;;;;1.88;0.90;;;17.90;96.90;;;;;;5064278;28;20103;-41
2021/10/01 12:10:32;;;;;;;1.67;0.68;;;17.90;96.90;;;;;;5068605;28;20032;-39
2021/10/01 12:13:08;;;;;;;2.33;0.90;;;17.90;97.00;;;;;;5062229;28;20037;-42
2021/10/01 12:15:55;;;;;;;2.25;0.88;;;17.90;97.00;;;;;;5069336;28;20032;-43
2021/10/01 12:18:36;;;;;;;3.20;1.17;;;18.00;96.90;;;;;;5064234;28;20016;-41
2021/10/01 12:21:14;;;;;;;4.30;1.00;;;18.00;96.90;;;;;;5056175;28;20033;-42
2021/10/01 12:23:44;;;;;;;2.05;0.80;;;18.00;96.90;;;;;;5057521;28;20021;-38
2021/10/01 12:26:28;;;;;;;2.88;0.95;;;17.90;96.70;;;;;;5056599;28;20020;-41
2021/10/01 12:28:54;;;;;;;1.90;0.88;;;17.90;96.80;;;;;;5056964;28;20017;-38
2021/10/01 12:31:21;;;;;;;4.00;1.17;;;18.00;96.60;;;;;;5055867;28;20027;-39
2021/10/01 12:33:47;;;;;;;2.20;1.00;;;18.00;96.70;;;;;;5059459;28;20029;-42
2021/10/01 12:36:24;;;;;;;1.58;0.77;;;18.10;96.80;;;;;;5053959;28;20542;-40
2021/10/01 12:38:54;;;;;;;2.20;0.80;;;18.10;96.80;;;;;;5060179;28;20049;-41
2021/10/01 12:41:20;;;;;;;3.90;0.80;;;18.20;96.80;;;;;;5052284;28;20013;-40
2021/10/01 12:43:48;;;;;;;4.38;1.02;;;18.20;96.70;;;;;;5062876;28;20021;-41
2021/10/01 12:46:40;;;;;;;3.97;1.15;;;18.20;96.70;;;;;;5052908;28;20013;-40
2021/10/01 12:49:22;;;;;;;1.52;0.82;;;18.20;96.50;;;;;;5062349;28;20032;-41
2021/10/01 12:52:27;;;;;;;1.75;0.88;;;18.20;96.10;;;;;;5068752;28;20078;-42
2021/10/01 12:55:20;;;;;;;2.65;1.20;;;18.30;95.60;;;;;;4969927;28;20031;-41
2021/10/01 12:57:49;;;;;;;;;;;18.30;94.90;;;;;;4971921;28;20618;-41
2021/10/01 13:00:21;;;;;;;3.85;0.90;;;18.30;94.50;;;;;;5019698;28;19920;-41
2021/10/01 13:02:50;;;;;;;3.67;1.50;;;18.40;94.60;;;;;;5059064;28;20036;-42
2021/10/01 13:05:22;;;;;;;2.67;0.90;;;18.40;94.50;;;;;;5054966;28;20017;-41
2021/10/01 13:07:50;;;;;;;3.58;1.17;;;18.40;94.20;;;;;;5056900;28;20475;-44
2021/10/01 13:10:17;;;;;;;2.95;0.90;;;18.40;94.20;;;;;;5056623;28;20511;-43
2021/10/01 13:12:49;;;;;;;4.30;1.38;;;18.40;93.90;;;;;;5054393;28;20422;-45
2021/10/01 13:15:46;;;;;;;2.70;1.30;;;18.40;93.90;;;;;;5057650;28;20037;-44
2021/10/01 13:18:19;;;;;;;4.15;1.20;;;18.40;94.00;;;;;;5058101;28;20024;-44
2021/10/01 13:21:12;;;;;;;4.45;0.93;;;18.30;93.90;;;;;;5052280;28;20032;-45
2021/10/01 13:23:47;;;;;;;3.00;0.90;;;18.30;93.90;;;;;;5056007;28;20037;-45
2021/10/01 13:26:43;;;;;;;1.63;0.80;;;18.30;94.00;;;;;;5053351;28;20078;-45
2021/10/01 13:29:11;;;;;;;2.03;0.77;;;18.30;93.90;;;;;;5045019;28;20384;-43
2021/10/01 13:31:45;;;;;;;2.13;0.90;;;18.30;93.90;;;;;;5049465;28;20484;-44
2021/10/01 13:34:13;;;;;;;2.70;1.23;;;18.30;94.00;;;;;;5062200;28;20037;-44
2021/10/01 13:36:40;;;;;;;2.20;0.80;;;18.30;93.80;;;;;;5051103;28;20033;-45
2021/10/01 13:39:06;;;;;;;2.15;0.82;;;18.20;93.90;;;;;;5053923;28;20111;-43
2021/10/01 13:41:33;;;;;;;2.40;0.93;;;18.30;94.20;;;;;;5054212;28;20116;-45
2021/10/01 13:43:58;;;;;;;1.88;0.80;;;18.20;94.00;;;;;;5055977;28;20506;-45
2021/10/01 13:46:24;;;;;;;3.17;0.85;;;18.20;94.10;;;;;;5056479;28;20120;-42
2021/10/01 13:48:50;;;;;;;4.55;1.23;;;18.20;94.20;;;;;;5053966;28;20337;-41
2021/10/01 13:51:18;;;;;;;2.20;0.80;;;18.30;94.10;;;;;;5058500;28;20116;-43
2021/10/01 13:53:46;;;;;;;1.83;0.90;;;18.30;93.70;;;;;;5052377;28;20082;-43
2021/10/01 13:56:11;;;;;;;2.60;1.02;;;18.30;93.60;;;;;;5060565;28;20546;-43
2021/10/01 13:58:37;;;;;;;3.78;0.70;;;18.40;93.70;;;;;;5050712;28;20408;-43
2021/10/01 14:01:03;;;;;;;2.88;0.93;;;18.40;93.80;;;;;;5062064;28;20592;-43
2021/10/01 14:03:29;;;;;;;2.72;1.10;;;18.40;93.90;;;;;;5050072;28;20029;-43
2021/10/01 14:05:56;;;;;;;1.73;0.80;;;18.50;93.80;;;;;;5061165;28;20488;-44
2021/10/01 14:08:22;;;;;;;2.42;1.10;;;18.50;93.70;;;;;;5049565;28;20029;-44
2021/10/01 14:10:48;;;;;;;2.13;0.90;;;18.50;93.70;;;;;;5061784;28;20024;-44
2021/10/01 14:13:14;;;;;;;0.98;0.60;;;18.40;93.40;;;;;;5049663;28;20396;-44
2021/10/01 14:15:42;;;;;;;3.90;0.93;;;18.40;93.50;;;;;;5061762;28;20033;-42
2021/10/01 14:18:10;;;;;;;2.13;0.85;;;18.40;93.60;;;;;;5049597;28;20028;-44
2021/10/01 14:20:37;;;;;;;3.13;0.98;;;18.40;93.70;;;;;;5055838;28;20029;-43
2021/10/01 14:23:04;;;;;;;4.50;1.20;;;18.40;93.70;;;;;;5067659;28;20025;-44
2021/10/01 14:25:30;;;;;;;6.40;1.33;;;18.40;93.50;;;;;;5060861;28;20063;-43
2021/10/01 14:27:57;;;;;;;4.25;1.40;;;18.40;93.50;;;;;;5065434;28;20537;-44
2021/10/01 14:30:29;;;;;;;3.92;1.05;;;18.30;93.50;;;;;;5064085;28;20025;-41